Time;durP1;ratioP1;P1;durP2;ratioP2;P2;SDS_P1;SDS_P2;PMS_P1;PMS_P2;Temp;Humidity;BMP_temperature;BMP_pressure;BME280_temperature;BME280_humidity;BME280_pressure;Samples;Min_cycle;Max_cycle;Signal;HPM_P1;HPM_P2
2023/08/02 00:01:49;;;;;;;8.73;5.30;;;;;;;-143.21;55.91;70801.31;5118092;27;20212;-79
2023/08/02 00:04:16;;;;;;;7.57;5.50;;;;;;;-143.21;56.03;70795.38;5124544;27;20203;-79
2023/08/02 00:06:43;;;;;;;9.70;5.55;;;;;;;-143.21;55.73;70781.50;5116897;27;20203;-79
2023/08/02 00:09:10;;;;;;;8.73;5.60;;;;;;;-143.21;55.15;70757.69;5119867;27;20227;-79
2023/08/02 00:11:38;;;;;;;7.85;5.22;;;;;;;-143.21;53.96;70739.84;5112090;27;20208;-79
2023/08/02 00:14:05;;;;;;;9.70;5.75;;;;;;;-143.21;54.10;70745.81;5114616;27;20573;-79
2023/08/02 00:16:33;;;;;;;7.38;5.68;;;;;;;-143.21;54.39;70753.72;5115482;27;20208;-79
2023/08/02 00:19:00;;;;;;;8.65;6.28;;;;;;;-143.21;54.96;70753.72;5114722;27;20584;-79
2023/08/02 00:21:27;;;;;;;9.20;6.47;;;;;;;-143.21;55.31;70777.53;5110304;27;20211;-80
2023/08/02 00:23:53;;;;;;;11.05;6.47;;;;;;;-143.21;55.74;70769.59;5113911;27;20195;-80
2023/08/02 00:26:20;;;;;;;8.98;5.85;;;;;;;-143.21;55.90;70775.53;5114842;27;20203;-79
2023/08/02 00:28:48;;;;;;;14.90;7.38;;;;;;;-143.21;55.71;70781.50;5117214;27;20216;-80
2023/08/02 00:31:16;;;;;;;14.57;6.45;;;;;;;-143.21;56.03;70779.50;5110890;28;20192;-79
2023/08/02 00:33:42;;;;;;;12.60;6.55;;;;;;;-143.21;55.72;70781.50;5110200;27;20567;-79
2023/08/02 00:36:09;;;;;;;9.48;6.07;;;;;;;-143.21;56.33;70783.47;5110020;28;20215;-80
2023/08/02 00:38:36;;;;;;;11.13;6.72;;;;;;;-143.21;56.35;70787.44;5120822;27;20196;-80
2023/08/02 00:41:04;;;;;;;10.55;6.65;;;;;;;-143.21;56.16;70787.44;5117621;27;20203;-79
2023/08/02 00:43:31;;;;;;;8.85;6.10;;;;;;;-143.21;56.42;70785.44;5110420;27;20334;-80
2023/08/02 00:45:59;;;;;;;12.50;7.40;;;;;;;-143.21;56.32;70787.44;5113260;27;20305;-80
2023/08/02 00:48:26;;;;;;;13.15;6.68;;;;;;;-143.21;56.16;70783.47;5114273;27;20218;-79
2023/08/02 00:50:53;;;;;;;10.77;6.82;;;;;;;-143.21;55.82;70779.50;5110219;27;20196;-80
2023/08/02 00:53:21;;;;;;;11.00;6.32;;;;;;;-143.21;55.15;70737.88;5113440;27;20203;-79
2023/08/02 00:55:50;;;;;;;11.70;6.43;;;;;;;-143.21;54.92;70725.97;5110760;28;20637;-79
2023/08/02 00:58:17;;;;;;;8.32;6.07;;;;;;;-143.21;54.64;70722.03;5116696;27;20634;-80
2023/08/02 01:00:43;;;;;;;10.65;6.32;;;;;;;-143.21;54.38;70733.91;5113564;27;20203;-80
2023/08/02 01:03:11;;;;;;;12.13;6.75;;;;;;;-143.21;55.69;70747.78;5113815;27;20212;-80
2023/08/02 01:05:44;;;;;;;10.77;6.82;;;;;;;-143.21;55.85;70749.78;5106494;27;20208;-80
2023/08/02 01:08:19;;;;;;;13.45;6.50;;;;;;;-143.21;56.21;70761.66;5116602;27;20233;-80
2023/08/02 01:10:54;;;;;;;15.27;6.38;;;;;;;-143.21;56.11;70763.66;5111557;27;20211;-81
2023/08/02 01:13:22;;;;;;;10.30;6.78;;;;;;;-143.21;56.16;70765.63;5116160;27;20199;-81
2023/08/02 01:15:49;;;;;;;12.23;7.70;;;;;;;-143.21;56.11;70773.56;5110404;28;20709;-85
2023/08/02 01:18:18;;;;;;;8.50;6.47;;;;;;;-143.21;55.51;70781.50;5114549;27;20201;-86
2023/08/02 01:20:46;;;;;;;10.32;8.07;;;;;;;-143.21;55.90;70777.53;5110760;28;20210;-86
2023/08/02 01:23:13;;;;;;;11.70;8.55;;;;;;;-143.21;56.19;70767.63;5111326;27;20281;-86
2023/08/02 01:25:42;;;;;;;18.60;10.02;;;;;;;-143.21;56.30;70769.59;5110884;27;20204;-85
2023/08/02 01:28:15;;;;;;;11.02;7.93;;;;;;;-143.21;55.77;70787.44;5110457;27;20585;-86
2023/08/02 01:30:43;;;;;;;16.52;9.25;;;;;;;-143.21;56.53;70785.44;5107636;28;20584;-86
2023/08/02 01:33:11;;;;;;;17.80;11.25;;;;;;;-143.21;57.06;70775.53;5110393;28;20200;-85
2023/08/02 01:35:38;;;;;;;17.17;10.00;;;;;;;-143.21;57.16;70779.50;5110821;28;20219;-86
2023/08/02 01:38:06;;;;;;;15.98;9.63;;;;;;;-143.21;57.78;70793.38;5107313;28;20218;-86
2023/08/02 01:40:33;;;;;;;15.85;8.60;;;;;;;-143.21;58.00;70811.22;5110603;28;20220;-86
2023/08/02 01:43:00;;;;;;;14.45;7.78;;;;;;;-143.21;58.18;70819.16;5110212;28;20204;-86
2023/08/02 01:45:27;;;;;;;16.42;11.10;;;;;;;-143.21;58.09;70825.09;5110388;28;20211;-86
2023/08/02 01:47:54;;;;;;;15.75;8.55;;;;;;;-143.21;58.15;70833.03;5110555;28;20196;-86
2023/08/02 01:50:21;;;;;;;15.85;9.38;;;;;;;-143.21;58.76;70833.03;5116357;28;21160;-79
2023/08/02 01:52:49;;;;;;;17.80;10.73;;;;;;;-143.21;58.92;70825.09;5109912;27;20671;-79
2023/08/02 01:55:18;;;;;;;22.40;13.43;;;;;;;-143.21;58.56;70827.06;5115241;28;20314;-78
2023/08/02 01:57:45;;;;;;;19.83;12.73;;;;;;;-143.21;58.72;70821.13;5115108;28;20295;-78
2023/08/02 02:00:13;;;;;;;17.48;11.63;;;;;;;-143.21;58.51;70821.13;5113080;27;20204;-78
2023/08/02 02:02:40;;;;;;;17.15;10.32;;;;;;;-143.21;58.24;70823.13;5109576;28;20723;-78
2023/08/02 02:05:07;;;;;;;19.00;12.90;;;;;;;-143.21;58.89;70827.06;5109905;28;20196;-79
2023/08/02 02:07:34;;;;;;;15.52;10.10;;;;;;;-143.21;58.55;70823.13;5109561;28;20207;-79
2023/08/02 02:10:01;;;;;;;15.13;10.07;;;;;;;-143.21;58.62;70825.09;5113944;28;20220;-79
2023/08/02 02:12:29;;;;;;;20.15;11.13;;;;;;;-143.21;59.19;70837.00;5111408;28;20203;-78
2023/08/02 02:14:56;;;;;;;19.77;11.05;;;;;;;-143.21;59.44;70840.97;5115949;27;20222;-79
2023/08/02 02:17:23;;;;;;;19.15;10.80;;;;;;;-143.21;59.63;70840.97;5114262;27;20203;-79
2023/08/02 02:19:50;;;;;;;23.33;12.07;;;;;;;-143.21;58.97;70833.03;5117193;27;20231;-79
2023/08/02 02:22:16;;;;;;;15.43;10.98;;;;;;;-143.21;58.76;70825.09;5119507;27;20204;-78
2023/08/02 02:24:43;;;;;;;20.52;11.55;;;;;;;-143.21;58.66;70817.16;5113856;27;20578;-79
2023/08/02 02:27:10;;;;;;;18.70;10.73;;;;;;;-143.21;58.66;70813.19;5115110;27;20196;-79
2023/08/02 02:29:38;;;;;;;21.48;10.90;;;;;;;-143.21;58.63;70817.16;5116935;27;20227;-79
2023/08/02 02:32:06;;;;;;;14.00;10.00;;;;;;;-143.21;58.76;70819.16;5109679;27;20196;-79
2023/08/02 02:34:33;;;;;;;13.15;9.55;;;;;;;-143.21;58.80;70825.09;5119998;27;20200;-78
2023/08/02 02:37:00;;;;;;;15.30;9.05;;;;;;;-143.21;59.13;70835.00;5116479;27;20215;-78
2023/08/02 02:39:27;;;;;;;14.70;8.63;;;;;;;-143.21;59.17;70835.00;5112454;27;20211;-78
2023/08/02 02:41:53;;;;;;;15.18;8.27;;;;;;;-143.21;59.06;70837.00;5117999;27;20234;-78
2023/08/02 02:44:20;;;;;;;11.93;8.48;;;;;;;-143.21;59.18;70842.94;5118094;27;20206;-79
2023/08/02 02:46:48;;;;;;;12.18;7.78;;;;;;;-143.21;59.57;70850.88;5118682;27;20203;-80
2023/08/02 02:49:16;;;;;;;12.82;8.13;;;;;;;-143.21;59.82;70866.72;5116453;27;20733;-79
2023/08/02 02:51:42;;;;;;;11.27;7.80;;;;;;;-143.21;59.88;70872.66;5113509;27;20737;-80
2023/08/02 02:54:09;;;;;;;10.88;6.85;;;;;;;-143.21;59.79;70882.59;5114590;27;20204;-79
2023/08/02 02:56:36;;;;;;;16.77;7.35;;;;;;;-143.21;59.71;70886.53;5109959;27;20631;-79
2023/08/02 02:59:03;;;;;;;9.68;6.43;;;;;;;-143.21;59.59;70896.47;5113025;27;20596;-79
2023/08/02 03:01:30;;;;;;;12.52;6.55;;;;;;;-143.21;58.66;70876.63;5122713;27;20697;-79
2023/08/02 03:03:58;;;;;;;10.77;6.22;;;;;;;-143.21;58.15;70852.84;5116119;27;20219;-79
2023/08/02 03:06:24;;;;;;;9.07;6.35;;;;;;;-143.21;57.61;70838.97;5120333;27;20203;-79
2023/08/02 03:08:51;;;;;;;8.55;6.40;;;;;;;-143.21;57.17;70837.00;5117447;27;20203;-79
2023/08/02 03:11:18;;;;;;;6.68;5.88;;;;;;;-143.21;56.93;70842.94;5117081;27;20227;-79
2023/08/02 03:13:45;;;;;;;9.65;5.75;;;;;;;-143.21;57.61;70850.88;5114150;27;20235;-80
2023/08/02 03:16:12;;;;;;;9.95;5.88;;;;;;;-143.21;57.87;70858.78;5112244;27;20253;-81
2023/08/02 03:18:38;;;;;;;10.68;6.25;;;;;;;-143.21;58.11;70858.78;5112412;28;20203;-81
2023/08/02 03:21:07;;;;;;;11.30;6.50;;;;;;;-143.21;58.26;70884.56;5116814;27;20207;-81
2023/08/02 03:23:35;;;;;;;10.35;6.60;;;;;;;-143.21;58.58;70906.38;5112727;28;20207;-81
2023/08/02 03:26:02;;;;;;;9.73;6.80;;;;;;;-143.21;59.16;70912.31;5112433;27;20222;-81
2023/08/02 03:28:29;;;;;;;13.18;6.78;;;;;;;-143.21;59.52;70916.28;5112321;27;20280;-81
2023/08/02 03:30:55;;;;;;;9.15;6.97;;;;;;;-143.21;59.71;70924.22;5115981;27;20238;-81
2023/08/02 03:33:22;;;;;;;13.82;7.28;;;;;;;-143.21;60.02;70926.19;5111917;27;20207;-81
2023/08/02 03:35:49;;;;;;;11.27;6.85;;;;;;;-143.21;59.84;70916.28;5115580;27;20212;-81
2023/08/02 03:38:17;;;;;;;10.07;7.40;;;;;;;-143.21;59.22;70886.53;5112049;27;20207;-81
2023/08/02 03:40:44;;;;;;;10.05;6.60;;;;;;;-143.21;58.85;70880.59;5115581;27;20214;-80
2023/08/02 03:43:11;;;;;;;11.68;6.90;;;;;;;-143.21;58.76;70880.59;5112587;27;20269;-81
2023/08/02 03:45:38;;;;;;;13.32;7.28;;;;;;;-143.21;59.06;70882.59;5109289;27;20227;-80
2023/08/02 03:48:05;;;;;;;10.65;7.30;;;;;;;-143.21;59.29;70892.50;5109914;27;20200;-80
2023/08/02 03:50:33;;;;;;;14.98;7.07;;;;;;;-143.21;59.73;70900.41;5112380;27;20223;-80
2023/08/02 03:53:00;;;;;;;14.00;7.45;;;;;;;-143.21;59.75;70906.38;5118764;27;20239;-80
2023/08/02 03:55:28;;;;;;;14.93;7.13;;;;;;;-143.21;59.10;70906.38;5114988;27;21105;-80
2023/08/02 03:57:55;;;;;;;11.23;7.03;;;;;;;-143.21;58.54;70904.38;5112338;27;20204;-80
2023/08/02 04:00:22;;;;;;;12.77;6.40;;;;;;;-143.21;59.15;70906.38;5111462;27;20226;-80
2023/08/02 04:02:49;;;;;;;12.85;7.70;;;;;;;-143.21;58.98;70902.41;5115625;27;20222;-80
2023/08/02 04:05:16;;;;;;;14.63;7.68;;;;;;;-143.21;59.53;70912.31;5115051;27;20204;-80
2023/08/02 04:07:43;;;;;;;15.43;7.53;;;;;;;-143.21;59.42;70914.31;5122035;27;20667;-80
2023/08/02 04:10:10;;;;;;;10.15;7.20;;;;;;;-143.21;59.87;70920.25;5114652;27;20224;-80
2023/08/02 04:12:38;;;;;;;12.20;7.22;;;;;;;-143.21;60.00;70900.41;5114181;27;20211;-80
2023/08/02 04:15:06;;;;;;;16.05;7.60;;;;;;;-143.21;58.85;70878.63;5116413;27;20199;-79
2023/08/02 04:17:32;;;;;;;12.20;7.90;;;;;;;-143.21;58.32;70872.66;5114721;27;20204;-80
2023/08/02 04:19:59;;;;;;;14.50;8.10;;;;;;;-143.21;58.34;70860.78;5117544;27;20207;-80
2023/08/02 04:22:25;;;;;;;13.35;7.40;;;;;;;-143.21;57.53;70854.84;5119153;27;20308;-81
2023/08/02 04:24:52;;;;;;;16.40;7.13;;;;;;;-143.21;57.45;70874.66;5114309;27;20200;-81
2023/08/02 04:27:19;;;;;;;10.18;6.80;;;;;;;-143.21;57.90;70888.53;5114404;27;20621;-84
2023/08/02 04:29:47;;;;;;;13.90;6.85;;;;;;;-143.21;58.00;70890.50;5115093;27;20224;-85
2023/08/02 04:32:14;;;;;;;12.02;7.68;;;;;;;-143.21;57.87;70892.50;5111391;27;20196;-85
2023/08/02 04:34:41;;;;;;;11.02;7.38;;;;;;;-143.21;57.99;70884.56;5111430;28;20215;-85
2023/08/02 04:37:07;;;;;;;12.93;7.60;;;;;;;-143.21;57.84;70878.63;5111634;28;20219;-85
2023/08/02 04:39:34;;;;;;;11.55;7.80;;;;;;;-143.21;57.80;70870.69;5110556;28;20207;-85
2023/08/02 04:42:01;;;;;;;12.70;7.13;;;;;;;-143.21;57.71;70876.63;5114567;27;20698;-85
2023/08/02 04:44:28;;;;;;;15.30;7.75;;;;;;;-143.21;57.95;70870.69;5117379;27;20225;-84
2023/08/02 04:46:56;;;;;;;12.20;8.05;;;;;;;-143.21;57.34;70858.78;5110951;28;20195;-83
2023/08/02 04:49:23;;;;;;;18.45;8.30;;;;;;;-143.21;57.13;70829.06;5112147;27;20200;-83
2023/08/02 04:51:50;;;;;;;12.98;8.32;;;;;;;-143.21;57.47;70825.09;5113845;27;20614;-82
2023/08/02 04:54:18;;;;;;;18.70;9.70;;;;;;;-143.21;57.68;70831.03;5116110;27;20272;-82
2023/08/02 04:56:45;;;;;;;27.58;8.10;;;;;;;-143.21;57.69;70833.03;5110739;27;20199;-78
2023/08/02 04:59:13;;;;;;;13.73;7.80;;;;;;;-143.21;57.48;70829.06;5116143;27;20696;-78
2023/08/02 05:01:40;;;;;;;13.65;7.90;;;;;;;-143.21;57.21;70827.06;5116627;27;20199;-80
2023/08/02 05:04:08;;;;;;;10.18;7.63;;;;;;;-143.21;57.06;70835.00;5114357;27;20196;-81
2023/08/02 05:06:35;;;;;;;15.02;8.10;;;;;;;-143.21;57.45;70827.06;5110806;27;20203;-80
2023/08/02 05:09:04;;;;;;;10.40;7.53;;;;;;;-143.21;57.34;70827.06;5110049;27;20199;-80
2023/08/02 05:11:31;;;;;;;10.73;7.13;;;;;;;-143.21;57.08;70807.25;5116942;27;21134;-79
2023/08/02 05:14:01;;;;;;;11.75;7.53;;;;;;;-143.21;56.82;70795.38;5115448;27;20214;-82
2023/08/02 05:16:35;;;;;;;11.90;7.78;;;;;;;-143.21;56.53;70797.34;5110416;27;20210;-80
2023/08/02 05:19:13;;;;;;;10.63;7.25;;;;;;;-143.21;56.61;70797.34;5113966;27;20200;-83
2023/08/02 05:21:41;;;;;;;14.07;8.10;;;;;;;-143.21;56.05;70773.56;5109238;27;20199;-81
2023/08/02 05:24:07;;;;;;;9.80;7.35;;;;;;;-143.21;55.54;70763.66;5113413;27;20275;-79
2023/08/02 05:26:34;;;;;;;12.02;7.75;;;;;;;-143.21;55.57;70769.59;5113424;27;20302;-79
2023/08/02 05:29:01;;;;;;;13.93;7.93;;;;;;;-143.21;55.30;70785.44;5120203;27;20214;-79
2023/08/02 05:31:28;;;;;;;10.77;7.57;;;;;;;-143.21;55.78;70789.41;5116845;27;20250;-81
2023/08/02 05:33:55;;;;;;;10.90;8.13;;;;;;;-143.21;56.21;70793.38;5113375;27;20290;-80
2023/08/02 05:36:21;;;;;;;14.38;8.07;;;;;;;-143.21;56.18;70801.31;5109616;28;20192;-81
2023/08/02 05:38:50;;;;;;;16.15;8.73;;;;;;;-143.21;56.05;70809.25;5108943;28;20828;-80
2023/08/02 05:41:17;;;;;;;14.82;8.05;;;;;;;-143.21;56.03;70811.22;5108708;27;20208;-81
2023/08/02 05:43:44;;;;;;;12.57;8.55;;;;;;;-143.21;56.43;70809.25;5108511;28;20294;-80
2023/08/02 05:46:11;;;;;;;15.88;8.52;;;;;;;-143.21;55.65;70789.41;5113090;27;20199;-80
2023/08/02 05:48:38;;;;;;;12.10;7.93;;;;;;;-143.21;55.24;70777.53;5109606;28;20203;-80
2023/08/02 05:51:05;;;;;;;9.10;8.00;;;;;;;-143.21;55.50;70789.41;5112462;27;20215;-80
2023/08/02 05:53:35;;;;;;;12.48;7.85;;;;;;;-143.21;55.16;70801.31;5108064;28;20208;-81
2023/08/02 05:56:03;;;;;;;11.80;8.45;;;;;;;-143.21;55.13;70805.28;5109780;28;20666;-81
2023/08/02 05:58:30;;;;;;;16.25;8.57;;;;;;;-143.21;55.74;70819.16;5107735;28;20218;-81
2023/08/02 06:00:57;;;;;;;11.27;8.55;;;;;;;-143.21;55.51;70823.13;5112191;28;20196;-81
2023/08/02 06:03:24;;;;;;;15.10;8.70;;;;;;;-143.21;56.13;70837.00;5106330;28;20848;-82
2023/08/02 06:05:50;;;;;;;11.90;9.02;;;;;;;-143.21;55.97;70848.88;5109618;28;20200;-82
2023/08/02 06:08:17;;;;;;;13.55;8.60;;;;;;;-143.21;56.50;70844.91;5107890;28;20493;-82
2023/08/02 06:10:44;;;;;;;11.35;9.13;;;;;;;-143.21;55.94;70809.25;5107983;28;20220;-81
2023/08/02 06:13:12;;;;;;;13.23;9.20;;;;;;;-143.21;55.49;70785.44;5112368;28;20258;-82
2023/08/02 06:15:39;;;;;;;11.40;9.50;;;;;;;-143.21;54.69;70773.56;5109056;28;20211;-81
2023/08/02 06:18:06;;;;;;;11.57;9.25;;;;;;;-143.21;54.28;70777.53;5110982;28;20261;-82
2023/08/02 06:20:32;;;;;;;17.85;9.90;;;;;;;-143.21;54.26;70767.63;5120496;28;20206;-82
2023/08/02 06:22:59;;;;;;;27.52;14.05;;;;;;;-143.21;54.83;70763.66;5110325;28;20216;-82
2023/08/02 06:25:27;;;;;;;16.13;12.65;;;;;;;-143.21;54.89;70761.66;5115420;28;20272;-82
2023/08/02 06:27:54;;;;;;;19.73;13.05;;;;;;;-143.21;55.09;70761.66;5111246;28;20204;-80
2023/08/02 06:30:22;;;;;;;17.02;12.65;;;;;;;-143.21;54.90;70753.72;5108885;28;20277;-81
2023/08/02 06:32:49;;;;;;;15.30;10.13;;;;;;;-143.21;54.83;70735.91;5106173;28;20203;-83
2023/08/02 06:35:16;;;;;;;17.20;10.18;;;;;;;-143.21;54.50;70696.25;5110479;28;20606;-81
2023/08/02 06:37:44;;;;;;;20.00;10.10;;;;;;;-143.21;54.27;70676.44;5107256;28;20208;-81
2023/08/02 06:40:12;;;;;;;17.50;9.93;;;;;;;-143.21;53.87;70666.50;5106536;28;20196;-82
2023/08/02 06:42:39;;;;;;;18.17;9.77;;;;;;;-143.21;53.46;70656.59;5107139;28;20211;-81
2023/08/02 06:45:07;;;;;;;14.20;9.73;;;;;;;-143.21;53.74;70654.63;5113680;28;20192;-81
2023/08/02 06:47:35;;;;;;;20.05;9.77;;;;;;;-143.21;53.80;70658.59;5118279;28;20203;-81
2023/08/02 06:50:02;;;;;;;15.15;10.00;;;;;;;-143.21;53.75;70652.66;5108208;28;20193;-80
2023/08/02 06:52:30;;;;;;;14.77;10.10;;;;;;;-143.21;53.49;70646.69;5112185;28;20236;-80
2023/08/02 06:54:57;;;;;;;13.45;9.52;;;;;;;-143.21;53.25;70620.94;5108134;28;20204;-80
2023/08/02 06:57:24;;;;;;;13.02;9.77;;;;;;;-143.21;52.78;70583.25;5108350;28;20620;-79
2023/08/02 06:59:50;;;;;;;13.35;10.05;;;;;;;-143.21;52.01;70573.34;5113273;28;20658;-80
2023/08/02 07:02:18;;;;;;;16.33;9.73;;;;;;;-143.21;51.69;70569.38;5110988;27;20352;-79
2023/08/02 07:04:46;;;;;;;17.30;10.30;;;;;;;-143.21;51.79;70569.38;5110100;27;20235;-80
2023/08/02 07:07:13;;;;;;;15.13;10.32;;;;;;;-143.21;51.25;70575.34;5113799;27;20200;-79
2023/08/02 07:09:39;;;;;;;16.08;10.15;;;;;;;-143.21;51.54;70583.25;5112679;27;20208;-80
2023/08/02 07:12:07;;;;;;;19.95;10.32;;;;;;;-143.21;51.75;70575.34;5117162;27;20601;-81
2023/08/02 07:14:34;;;;;;;17.13;10.23;;;;;;;-143.21;51.66;70561.47;5109373;27;20584;-79
2023/08/02 07:17:01;;;;;;;11.50;10.27;;;;;;;-143.21;51.73;70557.50;5114556;27;20203;-79
2023/08/02 07:19:27;;;;;;;15.57;10.60;;;;;;;-143.21;51.34;70535.69;5114669;27;20200;-79
2023/08/02 07:21:55;;;;;;;16.00;11.07;;;;;;;-143.21;50.83;70509.94;5109765;27;20199;-78
2023/08/02 07:24:22;;;;;;;13.35;10.18;;;;;;;-143.21;50.56;70494.06;5113733;27;20693;-77
2023/08/02 07:26:49;;;;;;;12.45;10.52;;;;;;;-143.21;50.23;70488.13;5117232;27;20577;-77
2023/08/02 07:29:16;;;;;;;14.13;10.75;;;;;;;-143.21;50.66;70496.06;5111641;27;20200;-76
2023/08/02 07:31:43;;;;;;;14.75;10.80;;;;;;;-143.21;51.17;70500.00;5113156;27;20231;-76
2023/08/02 07:34:10;;;;;;;16.63;11.40;;;;;;;-143.21;50.70;70492.09;5112945;27;20207;-77
2023/08/02 07:36:37;;;;;;;14.90;10.93;;;;;;;-143.21;50.79;70500.00;5113349;27;20214;-77
2023/08/02 07:39:05;;;;;;;14.00;10.23;;;;;;;-143.21;51.25;70509.94;5116119;27;20216;-77
2023/08/02 07:41:32;;;;;;;19.08;10.18;;;;;;;-143.21;51.58;70503.97;5119497;27;20211;-77
2023/08/02 07:43:58;;;;;;;13.05;10.20;;;;;;;-143.21;51.22;70488.13;5112929;27;20759;-76
2023/08/02 07:46:25;;;;;;;13.18;10.52;;;;;;;-143.21;50.95;70480.19;5114964;27;21070;-77
2023/08/02 07:48:52;;;;;;;17.77;11.38;;;;;;;-143.21;50.67;70472.25;5108108;27;20204;-77
2023/08/02 07:51:19;;;;;;;12.98;10.35;;;;;;;-143.21;50.85;70470.28;5114768;27;20654;-77
2023/08/02 07:53:46;;;;;;;15.98;11.35;;;;;;;-143.21;50.55;70456.41;5117220;27;20583;-76
2023/08/02 07:56:14;;;;;;;15.55;10.65;;;;;;;-143.21;50.15;70462.34;5111737;27;20204;-77
2023/08/02 07:58:41;;;;;;;13.88;10.48;;;;;;;-143.21;50.13;70442.53;5111606;27;20204;-77
2023/08/02 08:01:09;;;;;;;26.83;10.73;;;;;;;-143.21;49.73;70426.69;5115278;27;20200;-79
2023/08/02 08:03:36;;;;;;;14.20;10.63;;;;;;;-143.21;49.81;70420.72;5119246;27;20218;-78
2023/08/02 08:06:10;;;;;;;16.77;9.95;;;;;;;-143.21;49.91;70412.81;5118613;27;20207;-77
2023/08/02 08:08:37;;;;;;;16.65;10.75;;;;;;;-143.21;49.97;70398.94;5104186;27;20206;-77
2023/08/02 08:11:04;;;;;;;12.60;9.50;;;;;;;-143.21;48.50;70373.16;5104639;27;20220;-79
2023/08/02 08:13:32;;;;;;;18.38;9.52;;;;;;;-143.21;48.79;70373.16;5114696;27;20207;-77
2023/08/02 08:16:00;;;;;;;10.68;8.95;;;;;;;-143.21;48.14;70359.28;5113894;27;20200;-78
2023/08/02 08:18:27;;;;;;;14.35;10.18;;;;;;;-143.21;48.85;70355.31;5108286;28;20211;-78
2023/08/02 08:20:53;;;;;;;12.68;9.80;;;;;;;-143.21;48.85;70341.44;5110982;27;20783;-77
2023/08/02 08:23:20;;;;;;;11.88;10.40;;;;;;;-143.21;47.99;70317.66;5110557;27;20203;-77
2023/08/02 08:25:47;;;;;;;13.25;10.15;;;;;;;-143.21;47.74;70303.78;5110413;28;20200;-77
2023/08/02 08:28:14;;;;;;;15.98;9.40;;;;;;;-143.21;46.56;70289.91;5108731;27;20207;-75
2023/08/02 08:30:42;;;;;;;12.60;8.90;;;;;;;-143.21;46.47;70272.09;5109376;28;20203;-79
2023/08/02 08:33:10;;;;;;;10.88;8.25;;;;;;;-143.21;45.30;70266.13;5109955;27;20207;-79
2023/08/02 08:35:37;;;;;;;8.90;8.00;;;;;;;-143.21;44.83;70268.13;5110357;28;20200;-77
2023/08/02 08:38:05;;;;;;;10.63;8.48;;;;;;;-143.21;45.04;70266.13;5107681;28;20203;-79
2023/08/02 08:40:32;;;;;;;11.13;8.35;;;;;;;-143.21;45.35;70250.28;5109811;28;20581;-78
2023/08/02 08:43:00;;;;;;;10.50;8.75;;;;;;;-143.21;44.77;70242.34;5109740;27;20212;-79
2023/08/02 08:45:28;;;;;;;12.98;8.40;;;;;;;-143.21;43.32;70236.41;5109621;28;20274;-77
2023/08/02 08:47:57;;;;;;;10.48;8.32;;;;;;;-143.21;43.43;70234.44;5109858;27;20199;-79
2023/08/02 08:50:24;;;;;;;16.70;8.23;;;;;;;-143.21;43.56;70230.47;5120303;27;20211;-80
2023/08/02 08:52:54;;;;;;;12.00;8.25;;;;;;;-143.21;43.34;70220.56;5109934;28;20224;-78
2023/08/02 08:55:25;;;;;;;11.45;8.02;;;;;;;-143.21;43.06;70220.56;5089917;28;20269;-78
2023/08/02 08:57:52;;;;;;;10.38;8.63;;;;;;;-143.21;44.52;70204.69;5088918;28;20724;-78
2023/08/02 09:00:19;;;;;;;10.30;8.98;;;;;;;-143.21;44.00;70186.84;5089611;28;20201;-78
2023/08/02 09:02:47;;;;;;;9.63;6.80;;;;;;;-143.21;40.76;70178.94;5102206;28;20230;-78
2023/08/02 09:05:16;;;;;;;8.00;6.28;;;;;;;-143.21;39.68;70171.00;5108197;28;20215;-78
2023/08/02 09:07:43;;;;;;;9.70;5.80;;;;;;;-143.21;38.16;70163.06;5105764;28;20670;-80
2023/08/02 09:10:10;;;;;;;8.85;5.82;;;;;;;-143.21;38.99;70176.94;5107992;27;20195;-79
2023/08/02 09:12:44;;;;;;;8.98;6.80;;;;;;;-143.21;40.09;70184.88;5118982;27;20226;-79
2023/08/02 09:15:13;;;;;;;7.03;5.15;;;;;;;-143.21;39.91;70188.84;5112952;27;20738;-78
2023/08/02 09:17:48;;;;;;;8.85;7.85;;;;;;;-143.21;40.26;70176.94;5108383;28;20209;-78
2023/08/02 09:20:19;;;;;;;9.10;7.47;;;;;;;-143.21;41.56;70163.06;5108641;28;20215;-77
2023/08/02 09:22:46;;;;;;;7.70;6.57;;;;;;;-143.21;40.81;70141.28;5105654;28;20211;-77
2023/08/02 09:25:23;;;;;;;10.05;7.90;;;;;;;-143.21;40.39;70113.53;5101604;28;20222;-78
2023/08/02 09:27:51;;;;;;;10.35;7.10;;;;;;;-143.21;40.30;70129.38;5095486;28;20196;-83
2023/08/02 09:30:27;;;;;;;8.25;6.32;;;;;;;-143.21;39.48;70117.50;5097688;28;20756;-83
2023/08/02 09:33:01;;;;;;;9.70;6.90;;;;;;;-143.21;39.52;70107.59;5109415;28;20312;-82
2023/08/02 09:35:32;;;;;;;10.20;7.35;;;;;;;-143.21;39.79;70095.69;5109436;28;20273;-83
2023/08/02 09:37:59;;;;;;;7.90;6.72;;;;;;;-143.21;38.42;70105.59;5108445;28;20195;-83
2023/08/02 09:40:36;;;;;;;12.18;6.90;;;;;;;-143.21;39.58;70105.59;5109942;28;20200;-83
2023/08/02 09:43:03;;;;;;;8.73;6.38;;;;;;;-143.21;38.84;70095.69;5097637;28;20224;-83
2023/08/02 09:45:34;;;;;;;8.30;6.18;;;;;;;-143.21;38.34;70099.66;5109943;28;20231;-84
2023/08/02 09:48:01;;;;;;;7.72;6.22;;;;;;;-143.21;38.71;70113.53;5109954;28;20214;-82
2023/08/02 09:50:30;;;;;;;6.80;6.20;;;;;;;-143.21;38.15;70046.16;5110466;28;20198;-84
2023/08/02 09:52:58;;;;;;;9.13;6.68;;;;;;;-143.21;36.13;70038.22;5109667;28;20316;-83
2023/08/02 09:55:24;;;;;;;7.50;6.45;;;;;;;-143.21;38.05;70054.06;5109690;28;20200;-83
2023/08/02 09:57:52;;;;;;;9.88;5.90;;;;;;;-143.21;37.40;70050.09;5109898;28;20210;-82
2023/08/02 10:00:19;;;;;;;6.93;5.97;;;;;;;-143.21;37.26;70008.50;5110440;28;20567;-83
2023/08/02 10:02:48;;;;;;;9.50;6.20;;;;;;;-143.21;36.12;69964.91;5109693;28;20192;-82
2023/08/02 10:05:18;;;;;;;6.88;5.90;;;;;;;-143.21;36.47;69943.09;5109694;28;20253;-84
2023/08/02 10:07:48;;;;;;;8.30;5.78;;;;;;;-143.21;36.27;69931.19;5109796;28;20211;-85
2023/08/02 10:10:26;;;;;;;7.05;5.85;;;;;;;-143.21;35.86;69933.19;5110052;27;20196;-84
2023/08/02 10:12:56;;;;;;;9.23;6.45;;;;;;;-143.21;36.29;69945.06;5124030;28;20258;-84
2023/08/02 10:15:23;;;;;;;10.77;6.32;;;;;;;-143.21;36.00;69945.06;5120609;28;20204;-84
2023/08/02 10:17:50;;;;;;;7.57;5.53;;;;;;;-143.21;35.33;69943.09;5110203;28;20192;-84
2023/08/02 10:20:18;;;;;;;11.95;5.88;;;;;;;-143.21;36.31;69915.34;5121236;28;20203;-85
2023/08/02 10:22:45;;;;;;;9.35;5.53;;;;;;;-143.21;35.36;69885.63;5131289;28;20188;-85
2023/08/02 10:25:16;;;;;;;8.43;5.45;;;;;;;-143.21;35.56;69877.69;5122419;27;20287;-85
2023/08/02 10:27:47;;;;;;;10.80;6.40;;;;;;;-143.21;35.07;69865.81;5111100;28;20195;-85
2023/08/02 10:30:17;;;;;;;9.80;5.68;;;;;;;-143.21;35.00;69851.94;5110117;28;20200;-84
2023/08/02 10:32:44;;;;;;;8.40;5.60;;;;;;;-143.21;34.67;69838.06;5110403;28;20231;-86
2023/08/02 10:35:11;;;;;;;6.20;4.95;;;;;;;-143.21;34.64;69806.34;5116212;28;20596;-83
2023/08/02 10:37:55;;;;;;;6.78;5.00;;;;;;;-143.21;33.70;69780.59;5110168;28;20219;-83
2023/08/02 10:40:25;;;;;;;10.32;5.55;;;;;;;-143.21;33.14;69792.47;5113317;28;20209;-85
2023/08/02 10:43:05;;;;;;;8.93;4.90;;;;;;;-143.21;33.79;69766.72;5116272;27;20203;-84
2023/08/02 10:45:35;;;;;;;7.13;4.93;;;;;;;-143.21;33.54;69764.75;5111315;27;21663;-86
2023/08/02 10:48:25;;;;;;;5.72;4.63;;;;;;;-143.21;33.27;69778.59;5114479;27;20204;-84
2023/08/02 10:50:52;;;;;;;6.55;5.00;;;;;;;-143.21;33.25;69780.59;5112273;27;20200;-85
2023/08/02 10:53:19;;;;;;;7.88;5.30;;;;;;;-143.21;33.25;69782.56;5112795;27;20208;-83
2023/08/02 10:56:17;;;;;;;8.10;5.43;;;;;;;-143.21;33.48;69782.56;5112205;27;20273;-85
2023/08/02 10:58:53;;;;;;;6.85;5.20;;;;;;;-143.21;33.03;69756.81;5109918;27;20207;-78
2023/08/02 11:01:21;;;;;;;9.15;4.70;;;;;;;-143.21;33.11;69733.03;5125290;27;20199;-78
2023/08/02 11:03:47;;;;;;;9.95;5.38;;;;;;;-143.21;32.68;69744.91;5108423;27;20204;-77
2023/08/02 11:06:27;;;;;;;7.43;5.00;;;;;;;-143.21;32.73;69766.72;5115001;27;20633;-77
2023/08/02 11:08:54;;;;;;;6.88;5.47;;;;;;;-143.21;33.17;69758.78;5110239;27;20650;-78
2023/08/02 11:11:33;;;;;;;6.07;5.25;;;;;;;-143.21;32.22;69711.22;5109328;27;20204;-78
2023/08/02 11:14:00;;;;;;;8.88;5.50;;;;;;;-143.21;32.96;69689.44;5109163;28;20204;-78